createdAt,value
2022-10-05T17:22:16.041Z,18.02
2022-10-05T17:23:17.007Z,17.99
2022-10-05T17:24:16.946Z,18.00
2022-10-05T17:25:16.938Z,18.00
2022-10-05T17:26:16.933Z,18.00
2022-10-05T17:27:16.913Z,18.04
2022-10-05T17:28:16.992Z,18.04
2022-10-05T17:29:16.909Z,18.06
2022-10-05T17:30:16.899Z,18.07
2022-10-05T17:31:16.981Z,18.06
2022-10-05T17:32:16.909Z,18.09
2022-10-05T17:33:16.870Z,18.09
2022-10-05T17:34:16.849Z,18.12
2022-10-05T17:35:18.710Z,18.13
2022-10-05T17:36:16.860Z,18.18
2022-10-05T17:37:16.809Z,18.19
2022-10-05T17:38:16.910Z,18.22
2022-10-05T17:39:16.794Z,18.28
2022-10-05T17:40:16.762Z,18.28
2022-10-05T17:41:16.783Z,18.27
2022-10-05T17:42:16.748Z,18.25
2022-10-05T17:43:16.796Z,18.24
2022-10-05T17:44:16.724Z,18.19
2022-10-05T17:45:16.732Z,18.12
2022-10-05T17:46:16.854Z,18.04
2022-10-05T17:47:16.704Z,17.97
2022-10-05T17:48:16.732Z,17.88
2022-10-05T17:49:16.680Z,17.88
2022-10-05T17:50:16.721Z,17.88
2022-10-05T17:51:16.695Z,17.88
2022-10-05T17:52:16.661Z,17.85
2022-10-05T17:53:16.640Z,17.84
2022-10-05T17:54:16.650Z,17.82
2022-10-05T17:55:16.607Z,17.82
2022-10-05T17:56:16.624Z,17.82
2022-10-05T17:57:16.634Z,17.84
2022-10-05T17:58:16.578Z,17.82
2022-10-05T17:59:16.578Z,17.81
2022-10-05T18:00:17.141Z,17.79
2022-10-05T18:01:16.627Z,17.74
2022-10-05T18:02:16.586Z,17.70
2022-10-05T18:03:16.521Z,17.66
2022-10-05T18:04:16.507Z,17.63
2022-10-05T18:05:16.505Z,17.57
2022-10-05T18:06:16.741Z,17.54
2022-10-05T18:07:16.511Z,17.47
2022-10-05T18:08:16.644Z,17.41
2022-10-05T18:09:17.180Z,17.38
2022-10-05T18:10:16.446Z,17.38
2022-10-05T18:11:16.458Z,17.33
2022-10-05T18:12:16.456Z,17.33
2022-10-05T18:13:16.427Z,17.29
2022-10-05T18:14:16.518Z,17.25
2022-10-05T18:15:16.405Z,17.20
2022-10-05T18:16:17.398Z,17.15
2022-10-05T18:17:16.380Z,17.11
2022-10-05T18:18:16.379Z,17.10
2022-10-05T18:19:16.376Z,17.07
2022-10-05T18:20:16.341Z,17.07
2022-10-05T18:21:16.353Z,17.06
2022-10-05T18:22:16.867Z,17.07
2022-10-05T18:23:16.930Z,17.07
2022-10-05T18:24:16.727Z,17.07
2022-10-05T18:25:16.295Z,17.07
2022-10-05T18:26:16.299Z,17.06
2022-10-05T18:27:16.298Z,17.00
2022-10-05T18:28:16.347Z,17.03
2022-10-05T18:29:17.294Z,17.04
2022-10-05T18:30:16.251Z,17.06
2022-10-05T18:31:16.741Z,17.10
2022-10-05T18:32:16.247Z,17.14
2022-10-05T18:33:16.466Z,17.17
2022-10-05T18:34:16.283Z,17.18
2022-10-05T18:35:17.226Z,17.22
2022-10-05T18:36:16.202Z,17.23
2022-10-05T18:37:16.188Z,17.28
2022-10-05T18:38:16.195Z,17.29
2022-10-05T18:39:16.330Z,17.30
2022-10-05T18:40:16.160Z,17.32
2022-10-05T18:41:16.179Z,17.29
2022-10-05T18:42:16.118Z,17.29
2022-10-05T18:43:18.297Z,17.26
2022-10-05T18:44:16.120Z,17.22
2022-10-05T18:45:16.120Z,17.14
2022-10-05T18:46:16.151Z,17.08
2022-10-05T18:47:16.075Z,17.06
2022-10-05T18:48:16.056Z,16.99
2022-10-05T18:49:16.066Z,16.95
2022-10-05T18:50:16.052Z,16.90
2022-10-05T18:51:16.059Z,16.85
2022-10-05T18:52:16.019Z,16.81
2022-10-05T18:53:16.015Z,16.77
2022-10-05T18:54:16.006Z,16.77
2022-10-05T18:55:16.004Z,16.71
2022-10-05T18:56:16.005Z,16.70
2022-10-05T18:57:15.987Z,16.60
2022-10-05T18:58:15.969Z,16.55
2022-10-05T18:59:15.969Z,16.49
2022-10-05T19:00:15.936Z,16.42
2022-10-05T19:01:16.060Z,16.40
2022-10-05T19:02:16.085Z,16.38
2022-10-05T19:03:15.944Z,16.37
2022-10-05T19:04:15.907Z,16.31
2022-10-05T19:05:42.475Z,16.26
2022-10-05T19:06:15.931Z,16.22
2022-10-05T19:07:15.886Z,16.22
2022-10-05T19:08:15.865Z,16.20
2022-10-05T19:09:15.849Z,16.20
2022-10-05T19:10:15.835Z,16.18
2022-10-05T19:11:15.850Z,16.14
2022-10-05T19:12:15.825Z,16.12
2022-10-05T19:13:15.806Z,16.04
2022-10-05T19:14:15.793Z,16.06
2022-10-05T19:15:15.800Z,16.04
2022-10-05T19:16:15.854Z,15.99
2022-10-05T19:17:15.764Z,15.99
2022-10-05T19:18:15.773Z,15.97
2022-10-05T19:19:15.751Z,15.94
2022-10-05T19:20:15.737Z,15.92
2022-10-05T19:21:15.755Z,15.88
2022-10-05T19:22:15.732Z,15.86
2022-10-05T19:23:15.702Z,15.81
2022-10-05T19:24:15.753Z,15.82
2022-10-05T19:25:15.695Z,15.78
2022-10-05T19:26:15.867Z,15.75
2022-10-05T19:27:15.668Z,15.70
2022-10-05T19:28:15.723Z,15.70
2022-10-05T19:29:15.662Z,15.68
2022-10-05T19:30:15.647Z,15.72
2022-10-05T19:31:15.757Z,15.72
2022-10-05T19:32:15.619Z,15.74
2022-10-05T19:33:15.605Z,15.70
2022-10-05T19:34:15.602Z,15.70
2022-10-05T19:35:15.579Z,15.70
2022-10-05T19:36:15.604Z,15.68
2022-10-05T19:37:15.566Z,15.72
2022-10-05T19:38:15.954Z,15.67
2022-10-05T19:39:15.601Z,15.66
2022-10-05T19:40:15.536Z,15.61
2022-10-05T19:41:15.539Z,15.60
2022-10-05T19:42:15.513Z,15.61
2022-10-05T19:43:15.532Z,15.61
2022-10-05T19:44:15.503Z,15.61
2022-10-05T19:45:15.479Z,15.59
2022-10-05T19:46:19.093Z,15.59
2022-10-05T19:47:15.475Z,15.56
2022-10-05T19:48:15.451Z,15.56
2022-10-05T19:49:15.446Z,15.57
2022-10-05T19:50:15.445Z,15.56
2022-10-05T19:51:15.460Z,15.54
2022-10-05T19:52:15.890Z,15.54
2022-10-05T19:53:15.398Z,15.51
2022-10-05T19:54:15.408Z,15.51
2022-10-05T19:55:15.394Z,15.48
2022-10-05T19:56:15.392Z,15.45
2022-10-05T19:57:15.438Z,15.45
2022-10-05T19:58:15.349Z,15.43
2022-10-05T19:59:15.355Z,15.42
2022-10-05T20:00:15.335Z,15.39
2022-10-05T20:01:15.458Z,15.38
2022-10-05T20:02:15.330Z,15.31
2022-10-05T20:03:15.385Z,15.27
2022-10-05T20:04:15.303Z,15.26
